createdAt,value
2022-11-16T00:01:40.156Z,162.88
2022-11-16T00:04:07.121Z,158.27
2022-11-16T00:06:33.872Z,165.10
2022-11-16T00:09:20.912Z,166.27
2022-11-16T00:11:53.363Z,179.98
2022-11-16T00:14:21.987Z,186.33
2022-11-16T00:16:48.692Z,179.43
2022-11-16T00:19:15.636Z,176.50
2022-11-16T00:21:42.992Z,169.15
2022-11-16T00:24:17.440Z,158.38
2022-11-16T00:26:45.511Z,186.43
2022-11-16T00:29:22.456Z,173.77
2022-11-16T00:31:50.155Z,174.88
2022-11-16T00:34:17.126Z,176.13
2022-11-16T00:36:44.161Z,172.88
2022-11-16T00:39:13.123Z,168.52
2022-11-16T00:41:40.584Z,164.18
2022-11-16T00:44:07.757Z,165.82
2022-11-16T00:46:35.154Z,164.77
2022-11-16T00:49:02.076Z,165.32
2022-11-16T00:51:29.271Z,165.65
2022-11-16T00:53:56.458Z,182.85
2022-11-16T00:56:23.497Z,186.05
2022-11-16T00:58:50.415Z,178.88
2022-11-16T01:01:22.030Z,182.85
2022-11-16T01:03:50.763Z,180.95
2022-11-16T01:06:20.282Z,187.93
2022-11-16T01:08:49.107Z,181.48
2022-11-16T01:11:36.161Z,173.95
2022-11-16T01:14:08.127Z,167.07
2022-11-16T01:16:38.104Z,168.45
2022-11-16T01:19:05.157Z,171.43
2022-11-16T01:21:33.228Z,162.38
2022-11-16T01:24:00.173Z,163.35
2022-11-16T01:26:26.949Z,172.18
2022-11-16T01:28:53.958Z,165.10
2022-11-16T01:31:23.316Z,164.55
2022-11-16T01:33:51.626Z,179.32
2022-11-16T01:36:22.840Z,177.20
2022-11-16T01:38:50.568Z,172.15
2022-11-16T01:41:24.615Z,175.68
2022-11-16T01:43:57.438Z,162.95
2022-11-16T01:46:30.138Z,163.80
2022-11-16T01:49:05.255Z,180.70
2022-11-16T01:51:33.986Z,160.02
2022-11-16T01:54:03.345Z,151.30
2022-11-16T01:56:33.290Z,165.30
2022-11-16T01:59:10.000Z,167.40
2022-11-16T02:01:37.037Z,160.50
2022-11-16T02:04:05.351Z,155.40
2022-11-16T02:06:41.588Z,168.35
2022-11-16T02:09:58.851Z,165.20
2022-11-16T02:12:52.692Z,159.38
2022-11-16T02:15:42.672Z,180.05
2022-11-16T02:18:20.023Z,176.20
2022-11-16T02:20:54.800Z,188.90
2022-11-16T02:23:27.908Z,172.75
2022-11-16T02:28:44.955Z,179.55
2022-11-16T02:31:19.393Z,165.90
2022-11-16T02:33:48.863Z,178.77
2022-11-16T02:36:21.774Z,166.00
2022-11-16T02:38:56.445Z,179.98
2022-11-16T02:41:26.368Z,177.40
2022-11-16T02:44:01.722Z,181.90
2022-11-16T02:46:32.493Z,167.25
2022-11-16T02:49:03.690Z,170.48
2022-11-16T02:51:34.390Z,172.75
2022-11-16T02:54:02.771Z,173.82
2022-11-16T02:56:30.974Z,168.77
2022-11-16T02:58:59.869Z,178.95
2022-11-16T03:01:38.686Z,163.68
2022-11-16T03:04:20.449Z,155.88
2022-11-16T03:06:50.656Z,185.27
2022-11-16T03:09:22.723Z,186.90
2022-11-16T03:12:00.160Z,166.63
2022-11-16T03:14:43.024Z,162.38
2022-11-16T03:17:19.396Z,166.07
2022-11-16T03:20:01.727Z,176.85
2022-11-16T03:22:38.883Z,171.07
2022-11-16T03:25:11.475Z,173.00
2022-11-16T03:27:46.762Z,164.27
2022-11-16T03:30:23.794Z,162.60
2022-11-16T03:32:56.144Z,188.50
2022-11-16T03:35:30.481Z,191.80
2022-11-16T03:38:02.923Z,168.38
2022-11-16T03:40:32.873Z,170.57
2022-11-16T03:43:02.921Z,169.13
2022-11-16T03:45:31.506Z,168.05
2022-11-16T03:48:00.433Z,175.65
2022-11-16T03:50:28.148Z,187.50
2022-11-16T03:52:55.395Z,180.75
2022-11-16T03:55:22.322Z,180.32
2022-11-16T03:57:49.027Z,169.70
2022-11-16T04:00:16.183Z,180.60
2022-11-16T04:02:46.838Z,180.57
2022-11-16T04:05:40.724Z,181.48
2022-11-16T04:08:34.271Z,172.73
2022-11-16T04:11:30.963Z,166.75
2022-11-16T04:14:16.644Z,175.82
2022-11-16T04:17:02.083Z,188.73
2022-11-16T04:19:55.301Z,163.50
2022-11-16T04:22:52.934Z,190.75
2022-11-16T04:25:27.033Z,171.32
2022-11-16T04:28:13.694Z,183.38
2022-11-16T04:31:09.794Z,178.70
2022-11-16T04:33:58.308Z,164.45
2022-11-16T04:36:43.618Z,195.05
2022-11-16T04:39:11.518Z,171.05
2022-11-16T04:41:58.070Z,170.38
2022-11-16T04:44:50.815Z,187.75
2022-11-16T04:47:21.074Z,177.27
2022-11-16T04:49:47.968Z,187.32
2022-11-16T04:52:19.652Z,177.88
2022-11-16T04:54:46.499Z,182.48
2022-11-16T04:57:13.521Z,189.43
2022-11-16T04:59:40.247Z,172.75
2022-11-16T05:02:10.425Z,176.77
2022-11-16T05:04:57.860Z,189.10
2022-11-16T05:07:27.374Z,191.52
2022-11-16T05:10:03.950Z,174.98
2022-11-16T05:12:31.097Z,176.52
2022-11-16T05:15:01.037Z,177.55
2022-11-16T05:17:34.498Z,166.93
2022-11-16T05:20:21.404Z,172.02
2022-11-16T05:22:58.365Z,196.95
2022-11-16T05:25:35.255Z,183.50
2022-11-16T05:28:05.611Z,168.73
2022-11-16T05:30:34.887Z,174.82
2022-11-16T05:33:03.351Z,178.30
2022-11-16T05:35:36.152Z,179.48
2022-11-16T05:38:02.922Z,178.77
2022-11-16T05:40:33.222Z,175.55
2022-11-16T05:43:01.291Z,185.57
2022-11-16T05:45:31.480Z,185.95
2022-11-16T05:48:01.714Z,183.70
2022-11-16T05:50:28.812Z,196.18
2022-11-16T05:53:13.878Z,206.80
2022-11-16T05:55:41.374Z,186.43
2022-11-16T05:58:09.040Z,194.80
2022-11-16T06:03:31.237Z,201.93
2022-11-16T06:05:59.685Z,222.48
2022-11-16T06:08:28.291Z,223.20
2022-11-16T06:11:02.889Z,223.57
2022-11-16T06:13:31.625Z,200.55
2022-11-16T06:16:02.099Z,202.85
2022-11-16T06:18:30.786Z,200.07
2022-11-16T06:20:58.422Z,211.93
2022-11-16T06:23:25.771Z,221.20
2022-11-16T06:25:55.458Z,208.48
2022-11-16T06:28:24.700Z,220.27
2022-11-16T06:30:53.448Z,612.47
2022-11-16T06:33:21.566Z,515.47
2022-11-16T06:36:29.518Z,575.78
2022-11-16T06:39:00.714Z,410.00
2022-11-16T06:41:40.191Z,180.55
2022-11-16T06:44:09.704Z,257.70
2022-11-16T06:46:41.236Z,194.30
2022-11-16T06:49:09.413Z,274.90
2022-11-16T06:51:36.579Z,181.82
2022-11-16T06:54:06.259Z,184.18
2022-11-16T06:56:37.683Z,181.48
2022-11-16T06:59:04.536Z,186.15
2022-11-16T07:01:31.499Z,180.57
2022-11-16T07:04:04.578Z,185.32
2022-11-16T07:06:32.602Z,185.38
2022-11-16T07:09:00.178Z,181.45
2022-11-16T07:11:30.527Z,177.73
2022-11-16T07:13:58.529Z,185.25
2022-11-16T07:16:29.289Z,189.60
2022-11-16T07:18:59.884Z,182.23
2022-11-16T07:21:30.023Z,177.63
2022-11-16T07:23:59.348Z,177.07
2022-11-16T07:26:26.703Z,195.43
2022-11-16T07:28:59.079Z,191.35
2022-11-16T07:31:26.433Z,201.35
2022-11-16T07:34:31.773Z,187.88
2022-11-16T07:37:08.266Z,181.68
2022-11-16T07:39:34.983Z,180.70
2022-11-16T07:42:03.551Z,177.18
2022-11-16T07:44:49.705Z,195.30
2022-11-16T07:47:16.519Z,206.95
2022-11-16T07:49:45.541Z,199.88
2022-11-16T07:52:18.538Z,221.82
2022-11-16T07:54:58.775Z,196.50
2022-11-16T07:57:27.575Z,188.13
2022-11-16T07:59:56.110Z,193.93
2022-11-16T08:02:23.261Z,197.48
2022-11-16T08:04:51.452Z,196.80
2022-11-16T08:07:23.171Z,196.10
2022-11-16T08:09:55.438Z,187.05
2022-11-16T08:12:24.691Z,197.38
2022-11-16T08:14:52.585Z,201.68
2022-11-16T08:17:19.817Z,206.68
2022-11-16T08:19:47.031Z,197.98
2022-11-16T08:22:15.844Z,195.80
2022-11-16T08:24:46.410Z,195.50
2022-11-16T08:27:15.391Z,182.20
2022-11-16T08:29:44.071Z,195.48
2022-11-16T08:32:11.082Z,180.75
2022-11-16T08:34:39.964Z,170.57
2022-11-16T08:37:07.121Z,177.80
2022-11-16T08:39:41.584Z,181.98
2022-11-16T08:42:09.821Z,183.85
2022-11-16T08:44:40.005Z,185.35
2022-11-16T08:47:11.599Z,175.20
2022-11-16T08:49:49.222Z,182.47
2022-11-16T08:52:17.136Z,191.70
2022-11-16T08:54:47.118Z,183.85
2022-11-16T08:57:13.979Z,183.65
2022-11-16T08:59:42.720Z,174.65
2022-11-16T09:02:13.156Z,184.73
2022-11-16T09:04:40.116Z,166.93
2022-11-16T09:07:06.879Z,165.15
2022-11-16T09:09:35.901Z,174.68
2022-11-16T09:12:02.675Z,163.57
2022-11-16T09:14:30.782Z,160.50
2022-11-16T09:16:59.936Z,168.30
2022-11-16T09:19:26.737Z,188.00
2022-11-16T09:21:53.584Z,185.60
2022-11-16T09:24:20.378Z,185.35
2022-11-16T09:26:47.110Z,184.80
2022-11-16T09:29:18.544Z,174.35
2022-11-16T09:31:46.063Z,175.73
2022-11-16T09:34:13.577Z,176.93
2022-11-16T09:36:43.039Z,161.98
2022-11-16T09:39:29.967Z,160.63
2022-11-16T09:42:13.236Z,172.13
2022-11-16T09:47:23.392Z,170.93
2022-11-16T09:50:01.514Z,160.40
2022-11-16T09:52:38.759Z,161.05
2022-11-16T09:55:28.654Z,166.35
2022-11-16T09:58:01.326Z,172.00
2022-11-16T10:00:31.168Z,176.50
2022-11-16T10:03:11.910Z,245.43
2022-11-16T10:06:15.451Z,395.02
2022-11-16T10:08:46.657Z,177.45
2022-11-16T10:11:32.567Z,178.73
2022-11-16T10:14:11.596Z,170.32
2022-11-16T10:17:03.452Z,168.57
2022-11-16T10:20:05.032Z,162.23
2022-11-16T10:22:41.059Z,165.38
2022-11-16T10:25:25.141Z,162.07
2022-11-16T10:28:00.565Z,179.20
2022-11-16T10:30:28.230Z,175.55
2022-11-16T10:33:08.044Z,171.65
2022-11-16T10:35:47.231Z,165.35
2022-11-16T10:38:21.891Z,174.00
2022-11-16T10:41:04.311Z,175.35
2022-11-16T10:43:33.197Z,155.70
2022-11-16T10:46:16.971Z,149.10
2022-11-16T10:49:06.619Z,166.98
2022-11-16T10:51:33.617Z,157.02
2022-11-16T10:54:00.624Z,154.50
2022-11-16T10:56:38.258Z,168.50
2022-11-16T10:59:12.388Z,152.10
2022-11-16T11:01:43.617Z,149.63
2022-11-16T11:04:22.653Z,149.55
2022-11-16T11:06:58.491Z,168.48
2022-11-16T11:09:36.933Z,168.25
2022-11-16T11:12:33.321Z,147.52
2022-11-16T11:15:02.371Z,153.85
2022-11-16T11:17:33.196Z,149.82
2022-11-16T11:20:04.532Z,151.55
2022-11-16T11:22:42.646Z,143.30
2022-11-16T11:25:38.194Z,146.18
2022-11-16T11:28:26.179Z,152.10
2022-11-16T11:31:04.007Z,154.73
2022-11-16T11:33:42.450Z,148.82
2022-11-16T11:36:20.454Z,158.98
2022-11-16T11:39:06.198Z,155.93
2022-11-16T11:41:41.493Z,143.48
2022-11-16T11:44:14.105Z,150.40
2022-11-16T11:47:35.589Z,147.63
2022-11-16T11:49:42.089Z,151.73
2022-11-16T11:52:17.420Z,151.63
2022-11-16T11:54:49.023Z,157.90
2022-11-16T11:57:22.237Z,162.57
2022-11-16T11:59:53.835Z,165.73
2022-11-16T12:02:42.155Z,155.52
2022-11-16T12:05:43.094Z,147.90
2022-11-16T12:08:22.617Z,149.82
2022-11-16T12:10:58.744Z,151.27
2022-11-16T12:13:35.461Z,168.82
2022-11-16T12:16:08.267Z,155.00
2022-11-16T12:19:00.439Z,156.32
2022-11-16T12:21:46.956Z,169.48
2022-11-16T12:24:42.608Z,172.85
2022-11-16T12:27:37.502Z,154.02
2022-11-16T12:30:14.784Z,155.88
2022-11-16T12:33:13.440Z,151.93
2022-11-16T12:36:00.659Z,152.00
2022-11-16T12:38:27.807Z,166.05
2022-11-16T12:41:16.460Z,171.27
2022-11-16T12:44:10.676Z,159.93
2022-11-16T12:47:00.422Z,154.73
2022-11-16T12:50:08.134Z,169.45
2022-11-16T12:53:02.362Z,151.35
2022-11-16T12:55:44.467Z,152.27
2022-11-16T12:58:23.654Z,151.93
2022-11-16T13:01:28.616Z,163.85
2022-11-16T13:04:05.627Z,161.63
2022-11-16T13:06:39.537Z,149.65
2022-11-16T13:09:15.616Z,147.15
2022-11-16T13:11:47.558Z,160.93
2022-11-16T13:14:19.308Z,170.85
2022-11-16T13:16:49.755Z,162.27
2022-11-16T13:19:18.046Z,162.75
2022-11-16T13:21:57.141Z,172.23
2022-11-16T13:24:39.482Z,172.57
2022-11-16T13:29:44.781Z,151.55
2022-11-16T13:32:32.023Z,156.20
2022-11-16T13:35:03.660Z,155.85
2022-11-16T13:37:39.389Z,159.35
2022-11-16T13:40:06.647Z,158.15
2022-11-16T13:42:45.117Z,148.30
2022-11-16T13:45:20.970Z,164.93
2022-11-16T13:47:56.924Z,161.35
2022-11-16T13:50:38.232Z,172.30
2022-11-16T13:56:05.245Z,165.85
2022-11-16T13:58:33.835Z,169.70
2022-11-16T14:01:00.579Z,164.13
2022-11-16T14:03:40.781Z,176.75
2022-11-16T14:06:13.577Z,153.93
2022-11-16T14:08:40.265Z,172.90
2022-11-16T14:11:30.530Z,169.57
2022-11-16T14:14:01.078Z,179.02
2022-11-16T14:16:30.692Z,165.88
2022-11-16T14:19:04.316Z,162.98
2022-11-16T14:21:56.620Z,169.60
2022-11-16T14:24:49.588Z,166.80
2022-11-16T14:27:30.665Z,172.38
2022-11-16T14:30:32.190Z,163.27
2022-11-16T14:32:59.486Z,168.30
2022-11-16T14:35:26.337Z,177.93
2022-11-16T14:38:07.288Z,183.95
2022-11-16T14:40:46.329Z,161.70
2022-11-16T14:43:42.233Z,167.07
2022-11-16T14:46:21.048Z,161.23
2022-11-16T14:48:50.706Z,176.60
2022-11-16T14:51:30.003Z,165.70
2022-11-16T14:54:01.724Z,161.80
2022-11-16T14:56:29.192Z,154.43
2022-11-16T14:59:01.857Z,168.20
2022-11-16T15:01:39.067Z,161.13
2022-11-16T15:04:10.924Z,155.90
2022-11-16T15:06:58.556Z,153.50
2022-11-16T15:09:32.996Z,172.73
2022-11-16T15:12:23.106Z,159.00
2022-11-16T15:14:56.416Z,163.40
2022-11-16T15:17:31.713Z,165.00
2022-11-16T15:20:15.394Z,158.88
2022-11-16T15:22:45.371Z,167.43
2022-11-16T15:25:33.088Z,160.00
2022-11-16T15:28:02.892Z,157.45
2022-11-16T15:30:36.963Z,159.27
2022-11-16T15:33:11.469Z,163.23
2022-11-16T15:35:38.961Z,156.88
2022-11-16T15:38:20.574Z,161.15
2022-11-16T15:41:01.039Z,171.23
2022-11-16T15:43:49.587Z,171.80
2022-11-16T15:46:29.182Z,163.02
2022-11-16T15:48:56.630Z,168.38
2022-11-16T15:51:23.661Z,168.90
2022-11-16T15:54:11.545Z,178.43
2022-11-16T15:56:39.116Z,162.43
2022-11-16T15:59:34.031Z,163.20
2022-11-16T16:02:01.053Z,164.30
2022-11-16T16:04:28.940Z,177.52
2022-11-16T16:07:00.411Z,173.15
2022-11-16T16:09:39.897Z,169.73
2022-11-16T16:12:20.504Z,183.48
2022-11-16T16:14:49.290Z,215.07
2022-11-16T16:17:28.022Z,211.80
2022-11-16T16:20:00.280Z,191.50
2022-11-16T16:22:33.017Z,170.95
2022-11-16T16:25:01.725Z,160.18
2022-11-16T16:27:31.002Z,161.00
2022-11-16T16:30:14.185Z,165.40
2022-11-16T16:32:41.297Z,186.73
2022-11-16T16:35:16.875Z,167.40
2022-11-16T16:37:44.102Z,175.85
2022-11-16T16:40:11.139Z,169.57
2022-11-16T16:42:38.329Z,169.07
2022-11-16T16:45:20.850Z,173.82
2022-11-16T16:50:15.563Z,178.40
2022-11-16T16:52:42.542Z,166.20
2022-11-16T16:55:11.915Z,170.10
2022-11-16T16:57:39.686Z,157.27
2022-11-16T17:00:11.714Z,171.07
2022-11-16T17:02:38.946Z,165.63
2022-11-16T17:05:06.123Z,161.52
2022-11-16T17:07:33.120Z,164.43
2022-11-16T17:09:59.948Z,156.48
2022-11-16T17:12:29.054Z,180.02
2022-11-16T17:14:59.036Z,172.88
2022-11-16T17:17:25.942Z,169.65
2022-11-16T17:19:53.220Z,170.70
2022-11-16T17:22:20.777Z,160.45
2022-11-16T17:24:47.789Z,167.55
2022-11-16T17:27:19.204Z,176.82
2022-11-16T17:29:46.296Z,173.40
2022-11-16T17:32:16.297Z,606.65
2022-11-16T17:34:45.948Z,612.03
2022-11-16T17:37:14.113Z,413.88
2022-11-16T17:39:46.352Z,301.75
2022-11-16T17:42:14.202Z,344.65
2022-11-16T17:44:40.911Z,175.07
2022-11-16T17:47:09.143Z,352.75
2022-11-16T17:49:38.897Z,182.88
2022-11-16T17:52:06.187Z,181.13
2022-11-16T17:54:35.169Z,173.70
2022-11-16T17:57:04.188Z,175.98
2022-11-16T17:59:31.052Z,184.43
2022-11-16T18:01:58.007Z,192.48
2022-11-16T18:04:25.059Z,180.43
2022-11-16T18:06:52.080Z,184.65
2022-11-16T18:09:19.029Z,183.95
2022-11-16T18:11:45.972Z,191.43
2022-11-16T18:14:12.813Z,182.43
2022-11-16T18:16:43.436Z,171.82
2022-11-16T18:19:23.929Z,179.60
2022-11-16T18:21:51.599Z,190.15
2022-11-16T18:24:23.347Z,200.30
2022-11-16T18:26:50.199Z,205.27
2022-11-16T18:29:19.290Z,194.05
2022-11-16T18:31:46.267Z,187.30
2022-11-16T18:34:15.670Z,191.77
2022-11-16T18:36:42.520Z,182.07
2022-11-16T18:39:09.807Z,173.18
2022-11-16T18:41:43.160Z,184.73
2022-11-16T18:46:42.626Z,173.52
2022-11-16T18:49:09.550Z,177.13
2022-11-16T18:51:38.771Z,167.15
2022-11-16T18:54:05.730Z,191.60
2022-11-16T18:56:36.176Z,199.18
2022-11-16T18:59:03.457Z,172.35
2022-11-16T19:01:30.300Z,167.05
2022-11-16T19:03:57.100Z,179.60
2022-11-16T19:06:24.288Z,179.07
2022-11-16T19:08:59.005Z,191.90
2022-11-16T19:11:28.089Z,191.80
2022-11-16T19:14:08.520Z,179.85
2022-11-16T19:16:35.553Z,161.65
2022-11-16T19:19:04.218Z,164.57
2022-11-16T19:21:33.972Z,164.18
2022-11-16T19:24:00.733Z,163.25
2022-11-16T19:26:28.074Z,171.88
2022-11-16T19:28:55.347Z,167.80
2022-11-16T19:31:27.480Z,171.32
2022-11-16T19:34:05.180Z,172.10
2022-11-16T19:36:37.032Z,162.40
2022-11-16T19:39:05.249Z,162.63
2022-11-16T19:41:32.080Z,166.30
2022-11-16T19:44:02.255Z,171.90
2022-11-16T19:46:32.933Z,181.00
2022-11-16T19:49:00.356Z,189.80
2022-11-16T19:51:29.901Z,170.50
2022-11-16T19:53:58.069Z,181.63
2022-11-16T19:56:30.531Z,178.02
2022-11-16T19:58:59.725Z,192.00
2022-11-16T20:01:28.830Z,177.88
2022-11-16T20:03:58.422Z,182.95
2022-11-16T20:06:33.282Z,174.52
2022-11-16T20:09:04.027Z,168.57
2022-11-16T20:11:33.628Z,170.30
2022-11-16T20:14:01.665Z,202.60
2022-11-16T20:16:36.975Z,188.40
2022-11-16T20:19:06.320Z,182.23
2022-11-16T20:21:41.360Z,184.82
2022-11-16T20:24:11.716Z,178.80
2022-11-16T20:26:45.489Z,191.18
2022-11-16T20:29:13.865Z,177.55
2022-11-16T20:31:42.801Z,184.27
2022-11-16T20:34:14.302Z,184.70
2022-11-16T20:36:43.624Z,186.48
2022-11-16T20:39:17.138Z,192.82
2022-11-16T20:41:44.314Z,177.90
2022-11-16T20:44:20.899Z,153.55
2022-11-16T20:46:48.998Z,205.27
2022-11-16T20:49:15.846Z,208.98
2022-11-16T20:51:42.652Z,235.38
2022-11-16T20:54:09.873Z,188.35
2022-11-16T20:56:36.817Z,172.93
2022-11-16T20:59:03.994Z,167.50
2022-11-16T21:01:33.780Z,166.02
2022-11-16T21:04:03.362Z,166.23
2022-11-16T21:06:30.966Z,204.60
2022-11-16T21:08:59.049Z,217.02
2022-11-16T21:11:28.975Z,199.02
2022-11-16T21:14:15.150Z,211.02
2022-11-16T21:16:44.740Z,191.32
2022-11-16T21:19:11.995Z,190.10
2022-11-16T21:21:40.969Z,169.65
2022-11-16T21:24:09.222Z,177.13
2022-11-16T21:26:39.347Z,167.10
2022-11-16T21:29:06.613Z,161.93
2022-11-16T21:31:35.967Z,173.23
2022-11-16T21:34:08.193Z,182.82
2022-11-16T21:36:37.640Z,173.30
2022-11-16T21:39:04.834Z,171.80
2022-11-16T21:41:31.883Z,169.43
2022-11-16T21:44:00.776Z,186.82
2022-11-16T21:46:29.949Z,175.85
2022-11-16T21:48:57.714Z,167.98
2022-11-16T21:51:26.893Z,172.52
2022-11-16T21:53:54.297Z,174.77
2022-11-16T21:56:23.502Z,178.00
2022-11-16T21:58:52.599Z,170.30
2022-11-16T22:01:20.709Z,184.93
2022-11-16T22:04:08.538Z,172.68
2022-11-16T22:06:54.253Z,157.23
2022-11-16T22:09:21.488Z,173.13
2022-11-16T22:11:48.515Z,180.07
2022-11-16T22:14:15.187Z,168.20
2022-11-16T22:16:42.190Z,159.07
2022-11-16T22:19:09.280Z,162.05
2022-11-16T22:21:36.212Z,162.23
2022-11-16T22:24:02.961Z,171.77
2022-11-16T22:26:29.774Z,169.63
2022-11-16T22:29:00.493Z,173.80
2022-11-16T22:31:27.224Z,174.45
2022-11-16T22:33:54.112Z,179.30
2022-11-16T22:36:20.947Z,171.98
2022-11-16T22:38:47.687Z,176.45
2022-11-16T22:41:14.767Z,167.88
2022-11-16T22:43:43.950Z,152.85
2022-11-16T22:46:11.235Z,170.70
2022-11-16T22:48:39.802Z,160.40
2022-11-16T22:51:14.324Z,165.05
2022-11-16T22:53:41.263Z,168.20
2022-11-16T22:56:09.467Z,156.00
2022-11-16T22:58:37.309Z,159.48
2022-11-16T23:01:05.618Z,163.20
2022-11-16T23:03:33.105Z,165.05
2022-11-16T23:06:00.303Z,167.55
2022-11-16T23:08:29.787Z,169.82
2022-11-16T23:11:36.124Z,178.50
2022-11-16T23:14:22.567Z,167.43
2022-11-16T23:16:49.469Z,177.88
2022-11-16T23:19:36.935Z,175.80
2022-11-16T23:22:23.236Z,153.95
2022-11-16T23:25:09.157Z,181.02
2022-11-16T23:27:59.788Z,162.55
2022-11-16T23:30:26.973Z,187.45
2022-11-16T23:32:53.951Z,181.38
2022-11-16T23:35:23.318Z,185.10
2022-11-16T23:38:01.474Z,177.57
2022-11-16T23:40:34.310Z,168.90
2022-11-16T23:43:20.228Z,161.10
2022-11-16T23:45:47.290Z,181.15
2022-11-16T23:48:15.852Z,177.98
2022-11-16T23:50:43.402Z,169.55
2022-11-16T23:53:10.789Z,157.30
2022-11-16T23:55:42.366Z,160.07
2022-11-16T23:58:14.157Z,160.18
